createdAt,value
2023-05-07T00:00:15.825Z,0
2023-05-07T00:01:15.502Z,0
2023-05-07T00:02:16.322Z,0
2023-05-07T00:03:16.787Z,0
2023-05-07T00:04:17.750Z,0
2023-05-07T00:05:18.678Z,0
2023-05-07T00:06:18.072Z,0
2023-05-07T00:07:17.726Z,0
2023-05-07T00:08:18.309Z,0
2023-05-07T00:09:18.724Z,0
2023-05-07T00:10:19.722Z,0
2023-05-07T00:11:20.516Z,0
2023-05-07T00:12:21.200Z,0
2023-05-07T00:13:22.081Z,0
2023-05-07T00:14:22.877Z,0
2023-05-07T00:15:23.965Z,0
2023-05-07T00:16:23.529Z,0
2023-05-07T00:17:24.119Z,0
2023-05-07T00:18:24.657Z,0
2023-05-07T00:19:25.098Z,0
2023-05-07T00:20:26.323Z,0
2023-05-07T00:21:27.074Z,0
2023-05-07T00:22:28.039Z,0
2023-05-07T00:23:28.865Z,0
2023-05-07T00:24:28.768Z,0
2023-05-07T00:25:29.662Z,0
2023-05-07T00:26:30.269Z,0
2023-05-07T00:27:30.751Z,0
2023-05-07T00:28:31.073Z,0
2023-05-07T00:29:31.704Z,0
2023-05-07T00:30:32.405Z,0
2023-05-07T00:31:33.075Z,0
2023-05-07T00:32:33.984Z,0
2023-05-07T00:33:34.815Z,0
2023-05-07T00:34:35.339Z,0
2023-05-07T00:35:36.337Z,0
2023-05-07T00:36:37.020Z,0
2023-05-07T00:37:37.761Z,0
2023-05-07T00:38:38.785Z,0
2023-05-07T00:39:39.241Z,0
2023-05-07T00:40:40.755Z,0
2023-05-07T00:41:41.271Z,0
2023-05-07T00:42:42.168Z,0
2023-05-07T00:43:42.889Z,0
2023-05-07T00:44:43.787Z,0
2023-05-07T00:45:44.901Z,0
2023-05-07T00:46:45.368Z,0
2023-05-07T00:47:46.073Z,0
2023-05-07T00:48:46.691Z,0
2023-05-07T00:49:47.441Z,0
2023-05-07T00:50:47.295Z,0
2023-05-07T00:51:48.234Z,0
2023-05-07T00:52:49.022Z,0
2023-05-07T00:53:49.830Z,0
2023-05-07T00:54:50.119Z,0
2023-05-07T00:55:51.229Z,0
2023-05-07T00:56:51.815Z,0
2023-05-07T00:57:52.539Z,0
2023-05-07T00:58:54.115Z,0
2023-05-07T00:59:54.273Z,0
2023-05-07T01:00:55.111Z,0
2023-05-07T01:01:55.618Z,0
2023-05-07T01:02:57.947Z,0
2023-05-07T01:03:58.481Z,0
2023-05-07T01:04:59.162Z,0
2023-05-07T01:06:00.622Z,0
2023-05-07T01:07:00.196Z,0
2023-05-07T01:08:00.161Z,0
2023-05-07T01:09:00.769Z,0
2023-05-07T01:10:00.881Z,0
2023-05-07T01:11:01.994Z,0
2023-05-07T01:12:02.178Z,0
2023-05-07T01:13:03.140Z,0
2023-05-07T01:14:04.023Z,0
2023-05-07T01:15:04.801Z,0
2023-05-07T01:16:05.502Z,0
2023-05-07T01:17:05.922Z,0
2023-05-07T01:18:06.805Z,0
2023-05-07T01:19:07.321Z,0
2023-05-07T01:20:07.853Z,0
2023-05-07T01:21:08.549Z,0
2023-05-07T01:22:08.859Z,0
2023-05-07T01:23:09.350Z,0
2023-05-07T01:24:10.160Z,0
2023-05-07T01:25:10.875Z,0
2023-05-07T01:26:12.051Z,0
2023-05-07T01:27:12.668Z,0
2023-05-07T01:28:13.605Z,0
2023-05-07T01:29:13.591Z,0
2023-05-07T01:30:14.455Z,0
2023-05-07T01:31:14.185Z,0
2023-05-07T01:32:14.356Z,0
2023-05-07T01:33:15.079Z,0
2023-05-07T01:34:15.388Z,0
2023-05-07T01:35:16.247Z,0
2023-05-07T01:36:16.480Z,0
2023-05-07T01:37:16.785Z,0
2023-05-07T01:38:17.178Z,0
2023-05-07T01:39:18.211Z,0
2023-05-07T01:40:19.107Z,0
2023-05-07T01:41:19.196Z,0
2023-05-07T01:42:19.704Z,0
2023-05-07T01:43:20.817Z,0
2023-05-07T01:44:21.532Z,0
2023-05-07T01:45:22.424Z,0
2023-05-07T01:46:23.629Z,0
2023-05-07T01:47:23.446Z,0
2023-05-07T01:48:24.009Z,0
2023-05-07T01:49:24.495Z,0
2023-05-07T01:50:25.708Z,0
2023-05-07T01:51:25.307Z,0
2023-05-07T01:52:25.592Z,0
2023-05-07T01:53:26.123Z,0
2023-05-07T01:54:26.697Z,0
2023-05-07T01:55:27.013Z,0
2023-05-07T01:56:27.500Z,0
2023-05-07T01:57:28.337Z,0
2023-05-07T01:58:29.106Z,0
2023-05-07T01:59:29.808Z,0
2023-05-07T02:00:30.594Z,0
2023-05-07T02:01:31.485Z,0
2023-05-07T02:02:32.170Z,0
2023-05-07T02:03:33.202Z,0
2023-05-07T02:04:33.359Z,0
2023-05-07T02:05:33.496Z,0
2023-05-07T02:06:33.627Z,0
2023-05-07T02:07:33.234Z,0
2023-05-07T02:08:33.745Z,0
2023-05-07T02:09:34.975Z,0
2023-05-07T02:10:35.518Z,0
2023-05-07T02:11:36.011Z,0
2023-05-07T02:12:36.436Z,0
2023-05-07T02:13:37.581Z,0
2023-05-07T02:14:38.431Z,0
2023-05-07T02:15:39.350Z,0
2023-05-07T02:16:40.175Z,0
2023-05-07T02:17:40.937Z,0
2023-05-07T02:18:41.991Z,0
2023-05-07T02:19:42.274Z,0
2023-05-07T02:20:43.103Z,0
2023-05-07T02:21:42.909Z,0
2023-05-07T02:22:43.417Z,0
2023-05-07T02:23:44.103Z,0
2023-05-07T02:24:44.844Z,0
2023-05-07T02:25:45.347Z,0
2023-05-07T02:26:46.033Z,0
2023-05-07T02:27:46.635Z,0
2023-05-07T02:28:47.348Z,0
2023-05-07T02:29:48.511Z,0
2023-05-07T02:30:48.898Z,0
2023-05-07T02:31:49.639Z,0
2023-05-07T02:32:50.078Z,0
2023-05-07T02:33:50.957Z,0
2023-05-07T02:34:51.833Z,0
2023-05-07T02:35:52.611Z,0
2023-05-07T02:36:53.928Z,0
2023-05-07T02:37:54.649Z,0
2023-05-07T02:38:55.366Z,0
2023-05-07T02:39:56.182Z,0
2023-05-07T02:40:56.741Z,0
2023-05-07T02:41:57.260Z,0
2023-05-07T02:42:57.925Z,0
2023-05-07T02:43:58.200Z,0
2023-05-07T02:44:59.778Z,0
2023-05-07T02:46:00.655Z,0
2023-05-07T02:47:01.208Z,0
2023-05-07T02:48:01.942Z,0
2023-05-07T02:49:02.704Z,0
2023-05-07T02:50:02.984Z,0
2023-05-07T02:51:04.185Z,0
2023-05-07T02:52:05.052Z,0
2023-05-07T02:53:05.371Z,0
2023-05-07T02:54:05.575Z,0
2023-05-07T02:55:06.233Z,0
2023-05-07T02:56:06.538Z,0
2023-05-07T02:57:07.523Z,0
2023-05-07T02:58:08.063Z,0
2023-05-07T02:59:08.965Z,0
2023-05-07T03:00:10.168Z,0
2023-05-07T03:01:10.038Z,0
2023-05-07T03:02:10.841Z,0
2023-05-07T03:03:11.658Z,0
2023-05-07T03:04:12.813Z,0
2023-05-07T03:05:13.615Z,0
2023-05-07T03:06:14.460Z,0
2023-05-07T03:07:15.215Z,0
2023-05-07T03:08:16.101Z,0
2023-05-07T03:09:16.633Z,0
2023-05-07T03:10:18.309Z,0
2023-05-07T03:12:18.442Z,0
2023-05-07T03:13:19.376Z,0
2023-05-07T03:14:18.885Z,0
2023-05-07T03:15:19.903Z,0
2023-05-07T03:16:21.100Z,0
2023-05-07T03:17:20.406Z,0
2023-05-07T03:18:21.843Z,0
2023-05-07T03:19:21.506Z,0
2023-05-07T03:20:22.979Z,0
2023-05-07T03:21:22.314Z,0
2023-05-07T03:22:23.061Z,0
2023-05-07T03:23:24.744Z,0
2023-05-07T03:24:24.826Z,0
2023-05-07T03:25:25.240Z,0
2023-05-07T03:26:25.440Z,0
2023-05-07T03:27:26.153Z,0
2023-05-07T03:28:26.817Z,0
2023-05-07T03:29:27.174Z,0
2023-05-07T03:30:27.675Z,0
2023-05-07T03:31:28.491Z,0
2023-05-07T03:32:29.417Z,4
2023-05-07T03:33:30.004Z,4
2023-05-07T03:34:30.472Z,0
2023-05-07T03:35:31.159Z,4
2023-05-07T03:36:31.818Z,4
2023-05-07T03:37:33.028Z,4
2023-05-07T03:38:33.536Z,4
2023-05-07T03:39:33.855Z,4
2023-05-07T03:40:35.434Z,8
2023-05-07T03:41:35.519Z,8
2023-05-07T03:42:35.931Z,8
2023-05-07T03:43:36.536Z,8
2023-05-07T03:44:37.687Z,8
2023-05-07T03:45:38.203Z,12
2023-05-07T03:46:39.165Z,12
2023-05-07T03:47:39.477Z,12
2023-05-07T03:48:39.044Z,12
2023-05-07T03:49:39.790Z,16
2023-05-07T03:50:40.751Z,16
2023-05-07T03:51:40.978Z,16
2023-05-07T03:52:41.975Z,20
2023-05-07T03:53:42.718Z,20
2023-05-07T03:54:43.037Z,24
2023-05-07T03:55:44.066Z,24
2023-05-07T03:56:44.963Z,28
2023-05-07T03:57:45.428Z,32
2023-05-07T03:58:46.703Z,32
2023-05-07T03:59:47.421Z,36
2023-05-07T04:00:47.801Z,40
2023-05-07T04:01:48.716Z,44
2023-05-07T04:02:49.899Z,48
2023-05-07T04:03:49.929Z,52
2023-05-07T04:04:49.970Z,56
2023-05-07T04:05:50.284Z,60
2023-05-07T04:06:51.018Z,64
2023-05-07T04:07:52.021Z,68
2023-05-07T04:08:52.532Z,76
2023-05-07T04:09:52.857Z,76
2023-05-07T04:10:53.919Z,84
2023-05-07T04:12:55.407Z,100
2023-05-07T04:13:56.203Z,104
2023-05-07T04:14:57.100Z,108
2023-05-07T04:15:57.889Z,116
2023-05-07T04:16:59.235Z,124
2023-05-07T04:17:59.726Z,128
2023-05-07T04:19:00.726Z,132
2023-05-07T04:20:01.431Z,140
2023-05-07T04:21:01.924Z,148
2023-05-07T04:22:03.071Z,152
2023-05-07T04:23:02.884Z,160
2023-05-07T04:24:03.827Z,168
2023-05-07T04:25:04.528Z,172
2023-05-07T04:26:05.030Z,184
2023-05-07T04:27:05.564Z,188
2023-05-07T04:28:08.934Z,200
2023-05-07T04:29:07.331Z,204
2023-05-07T04:30:07.939Z,212
2023-05-07T04:31:08.747Z,220
2023-05-07T04:32:09.975Z,228
2023-05-07T04:33:10.960Z,236
2023-05-07T04:34:11.584Z,244
2023-05-07T04:35:12.093Z,256
2023-05-07T04:36:12.601Z,260
2023-05-07T04:37:12.990Z,272
2023-05-07T04:38:13.927Z,280
2023-05-07T04:39:14.843Z,288
2023-05-07T04:40:15.903Z,296
2023-05-07T04:41:15.938Z,304
2023-05-07T04:42:15.602Z,316
2023-05-07T04:43:16.104Z,320
2023-05-07T04:44:16.743Z,332
2023-05-07T04:45:17.638Z,348
2023-05-07T04:46:18.649Z,360
2023-05-07T04:47:19.444Z,372
2023-05-07T04:48:20.218Z,388
2023-05-07T04:49:20.524Z,404
2023-05-07T04:50:21.624Z,416
2023-05-07T04:51:22.246Z,416
2023-05-07T04:52:23.562Z,424
2023-05-07T04:53:23.284Z,428
2023-05-07T04:54:23.781Z,432
2023-05-07T04:55:24.535Z,440
2023-05-07T04:56:25.272Z,448
2023-05-07T04:57:25.757Z,452
2023-05-07T04:58:26.455Z,452
2023-05-07T04:59:27.663Z,456
2023-05-07T05:00:27.566Z,452
2023-05-07T05:01:28.672Z,460
2023-05-07T05:02:30.840Z,464
2023-05-07T05:03:29.075Z,472
2023-05-07T05:04:29.058Z,480
2023-05-07T05:05:29.576Z,488
2023-05-07T05:06:29.865Z,488
2023-05-07T05:07:30.932Z,500
2023-05-07T05:08:30.744Z,516
2023-05-07T05:09:31.264Z,528
2023-05-07T05:10:34.848Z,544
2023-05-07T05:11:32.899Z,552
2023-05-07T05:12:32.986Z,560
2023-05-07T05:13:33.937Z,560
2023-05-07T05:14:34.723Z,568
2023-05-07T05:15:39.416Z,584
2023-05-07T05:16:35.339Z,596
2023-05-07T05:17:35.931Z,608
2023-05-07T05:18:36.594Z,632
2023-05-07T05:19:37.106Z,636
2023-05-07T05:20:37.424Z,660
2023-05-07T05:21:38.142Z,660
2023-05-07T05:22:39.016Z,664
2023-05-07T05:23:39.828Z,664
2023-05-07T05:24:40.362Z,660
2023-05-07T05:25:40.658Z,668
2023-05-07T05:26:41.527Z,668
2023-05-07T05:27:42.260Z,672
2023-05-07T05:28:42.748Z,676
2023-05-07T05:29:43.615Z,688
2023-05-07T05:30:43.926Z,716
2023-05-07T05:31:45.396Z,724
2023-05-07T05:32:46.121Z,732
2023-05-07T05:33:45.781Z,740
2023-05-07T05:34:46.300Z,752
2023-05-07T05:35:47.004Z,756
2023-05-07T05:36:47.724Z,756
2023-05-07T05:37:48.748Z,764
2023-05-07T05:38:48.540Z,768
2023-05-07T05:39:49.018Z,784
2023-05-07T05:40:49.713Z,792
2023-05-07T05:41:50.265Z,796
2023-05-07T05:42:51.028Z,808
2023-05-07T05:43:51.570Z,820
2023-05-07T05:44:52.188Z,828
2023-05-07T05:45:53.144Z,836
2023-05-07T05:46:54.335Z,840
2023-05-07T05:47:55.332Z,828
2023-05-07T05:48:55.236Z,860
2023-05-07T05:49:55.382Z,848
2023-05-07T05:50:55.761Z,868
2023-05-07T05:51:56.270Z,876
2023-05-07T05:52:56.333Z,888
2023-05-07T05:53:57.474Z,900
2023-05-07T05:54:57.390Z,916
2023-05-07T05:55:57.710Z,912
2023-05-07T05:56:58.759Z,936
2023-05-07T05:57:59.378Z,932
2023-05-07T05:59:00.246Z,956
2023-05-07T06:00:00.317Z,964
2023-05-07T06:01:01.211Z,980
2023-05-07T06:02:02.257Z,980
2023-05-07T06:03:02.807Z,992
2023-05-07T06:04:02.565Z,996
2023-05-07T06:05:03.671Z,1008
2023-05-07T06:06:03.877Z,984
2023-05-07T06:07:04.586Z,1008
2023-05-07T06:08:05.174Z,1004
2023-05-07T06:09:06.048Z,1012
2023-05-07T06:10:06.940Z,1044
2023-05-07T06:11:07.944Z,1056
2023-05-07T06:12:11.669Z,1076
2023-05-07T06:13:08.826Z,1068
2023-05-07T06:14:09.858Z,1028
2023-05-07T06:15:10.793Z,976
2023-05-07T06:16:10.676Z,960
2023-05-07T06:17:12.300Z,1024
2023-05-07T06:18:12.614Z,1048
2023-05-07T06:19:13.188Z,1132
2023-05-07T06:20:14.072Z,1152
2023-05-07T06:21:13.885Z,1164
2023-05-07T06:22:14.469Z,1160
2023-05-07T06:23:17.172Z,1160
2023-05-07T06:24:15.741Z,1140
2023-05-07T06:25:16.011Z,1152
2023-05-07T06:26:16.951Z,1120
2023-05-07T06:27:17.954Z,1048
2023-05-07T06:28:18.272Z,1100
2023-05-07T06:29:18.562Z,1120
2023-05-07T06:30:19.483Z,1164
2023-05-07T06:31:20.141Z,1188
2023-05-07T06:32:21.253Z,1156
2023-05-07T06:33:22.013Z,1192
2023-05-07T06:34:22.922Z,1280
2023-05-07T06:35:23.659Z,1292
2023-05-07T06:36:23.957Z,1316
2023-05-07T06:37:24.692Z,1280
2023-05-07T06:38:25.340Z,1260
2023-05-07T06:39:26.694Z,1284
2023-05-07T06:40:27.392Z,1376
2023-05-07T06:41:28.509Z,1452
2023-05-07T06:42:29.313Z,1428
2023-05-07T06:43:29.874Z,1468
2023-05-07T06:44:30.780Z,1460
2023-05-07T06:45:32.021Z,1412
2023-05-07T06:46:31.899Z,1348
2023-05-07T06:47:32.647Z,1328
2023-05-07T06:48:33.314Z,1408
2023-05-07T06:49:34.120Z,1496
2023-05-07T06:50:34.645Z,1428
2023-05-07T06:51:35.347Z,1476
2023-05-07T06:52:36.084Z,1536
2023-05-07T06:53:36.903Z,1644
2023-05-07T06:54:37.447Z,1672
2023-05-07T06:55:37.762Z,1816
2023-05-07T06:56:38.278Z,2080
2023-05-07T06:57:39.113Z,2988
2023-05-07T06:58:39.580Z,4744
2023-05-07T06:59:40.288Z,6588
2023-05-07T07:00:41.053Z,7104
2023-05-07T07:01:42.360Z,6588
2023-05-07T07:02:42.616Z,7044
2023-05-07T07:03:42.257Z,6820
2023-05-07T07:04:45.169Z,5876
2023-05-07T07:05:42.964Z,6428
2023-05-07T07:06:43.822Z,7084
2023-05-07T07:07:44.746Z,6152
2023-05-07T07:08:45.573Z,5920
2023-05-07T07:09:45.567Z,5476
2023-05-07T07:10:46.489Z,5028
2023-05-07T07:11:46.842Z,4296
2023-05-07T07:12:47.904Z,3676
2023-05-07T07:13:48.187Z,3376
2023-05-07T07:14:49.691Z,3168
2023-05-07T07:15:51.075Z,3232
2023-05-07T07:16:51.737Z,3392
2023-05-07T07:17:52.858Z,3308
2023-05-07T07:18:53.704Z,3400
2023-05-07T07:19:54.242Z,3344
2023-05-07T07:20:54.550Z,3376
2023-05-07T07:21:55.265Z,3020
2023-05-07T07:22:56.016Z,3272
2023-05-07T07:23:56.894Z,3096
2023-05-07T07:24:57.766Z,2900
2023-05-07T07:25:58.313Z,2924
2023-05-07T07:26:58.823Z,2812
2023-05-07T07:27:59.836Z,3032
2023-05-07T07:29:00.534Z,3136
2023-05-07T07:30:01.279Z,3620
2023-05-07T07:31:02.090Z,3640
2023-05-07T07:32:03.088Z,3600
2023-05-07T07:33:04.309Z,3340
2023-05-07T07:34:04.591Z,3876
2023-05-07T07:35:05.508Z,3372
2023-05-07T07:36:06.275Z,3196
2023-05-07T07:37:07.206Z,3064
2023-05-07T07:38:07.148Z,3008
2023-05-07T07:39:07.762Z,3572
2023-05-07T07:40:08.569Z,3892
2023-05-07T07:41:09.519Z,3920
2023-05-07T07:42:10.483Z,4168
2023-05-07T07:43:11.044Z,4016
2023-05-07T07:44:12.648Z,3684
2023-05-07T07:45:12.202Z,3780
2023-05-07T07:46:13.189Z,3852
2023-05-07T07:47:14.185Z,3432
2023-05-07T07:48:14.397Z,3028
2023-05-07T07:49:15.152Z,3004
2023-05-07T07:50:22.165Z,2940
2023-05-07T07:51:15.886Z,2844
2023-05-07T07:52:16.818Z,2988
2023-05-07T07:53:17.741Z,3064
2023-05-07T07:54:18.205Z,3184
2023-05-07T07:55:18.243Z,3208
2023-05-07T07:56:19.144Z,3144
2023-05-07T07:57:19.669Z,3308
2023-05-07T07:58:20.702Z,3304
2023-05-07T07:59:21.425Z,3444
2023-05-07T08:00:22.320Z,3424
2023-05-07T08:01:22.744Z,3576
2023-05-07T08:02:24.125Z,3676
2023-05-07T08:03:24.922Z,3720
2023-05-07T08:04:24.907Z,3648
2023-05-07T08:05:25.647Z,3704
2023-05-07T08:06:26.193Z,4120
2023-05-07T08:07:26.516Z,4276
2023-05-07T08:08:26.999Z,4100
2023-05-07T08:09:27.945Z,4252
2023-05-07T08:10:28.968Z,4320
2023-05-07T08:11:29.528Z,4744
2023-05-07T08:12:30.250Z,4576
2023-05-07T08:13:31.175Z,4536
2023-05-07T08:14:31.789Z,4464
2023-05-07T08:15:32.128Z,4192
2023-05-07T08:16:37.038Z,4664
2023-05-07T08:17:33.577Z,4960
2023-05-07T08:18:34.459Z,5084
2023-05-07T08:19:35.229Z,5068
2023-05-07T08:20:36.174Z,4716
2023-05-07T08:21:40.337Z,4372
2023-05-07T08:22:37.397Z,4356
2023-05-07T08:23:37.318Z,4036
2023-05-07T08:24:38.294Z,3864
2023-05-07T08:25:39.046Z,3592
2023-05-07T08:26:39.146Z,3524
2023-05-07T08:27:39.684Z,3400
2023-05-07T08:28:40.301Z,3160
2023-05-07T08:29:41.005Z,3236
2023-05-07T08:30:41.636Z,3380
2023-05-07T08:31:42.296Z,3516
2023-05-07T08:32:42.894Z,3824
2023-05-07T08:33:43.666Z,3972
2023-05-07T08:34:44.298Z,4712
2023-05-07T08:35:44.670Z,5088
2023-05-07T08:36:45.446Z,4696
2023-05-07T08:37:45.958Z,4684
2023-05-07T08:38:46.282Z,4400
2023-05-07T08:39:47.551Z,4120
2023-05-07T08:40:47.764Z,4152
2023-05-07T08:41:48.503Z,4320
2023-05-07T08:42:49.660Z,4340
2023-05-07T08:43:50.426Z,4664
2023-05-07T08:44:51.059Z,4732
2023-05-07T08:45:51.573Z,5148
2023-05-07T08:46:53.130Z,5796
2023-05-07T08:47:53.012Z,6208
2023-05-07T08:48:53.250Z,7032
2023-05-07T08:49:53.810Z,7524
2023-05-07T08:50:54.504Z,7352
2023-05-07T08:51:54.844Z,8124
2023-05-07T08:52:55.548Z,7744
2023-05-07T08:53:56.341Z,7964
2023-05-07T08:54:57.286Z,6832
2023-05-07T08:55:57.100Z,7576
2023-05-07T08:56:57.647Z,8756
2023-05-07T08:57:58.560Z,8472
2023-05-07T08:58:59.608Z,8752
2023-05-07T08:59:59.723Z,9304
2023-05-07T09:01:00.655Z,9080
2023-05-07T09:02:01.969Z,9328
2023-05-07T09:03:02.628Z,8744
2023-05-07T09:04:03.673Z,8524
2023-05-07T09:05:04.044Z,8660
2023-05-07T09:06:05.606Z,8908
2023-05-07T09:07:05.117Z,8628
2023-05-07T09:08:05.627Z,8996
2023-05-07T09:09:06.423Z,8564
2023-05-07T09:10:07.292Z,9136
2023-05-07T09:11:07.685Z,9224
2023-05-07T09:12:08.395Z,7904
2023-05-07T09:13:08.658Z,8452
2023-05-07T09:14:09.808Z,7344
2023-05-07T09:16:09.898Z,8460
2023-05-07T09:17:10.742Z,7608
2023-05-07T09:18:11.569Z,9292
2023-05-07T09:19:12.657Z,9596
2023-05-07T09:20:16.702Z,10044
2023-05-07T09:21:14.432Z,9876
2023-05-07T09:22:15.007Z,10400
2023-05-07T09:23:15.537Z,10700
2023-05-07T09:24:15.864Z,11236
2023-05-07T09:25:17.708Z,11580
2023-05-07T09:26:19.350Z,11872
2023-05-07T09:27:18.850Z,12028
2023-05-07T09:28:19.358Z,11712
2023-05-07T09:29:20.212Z,11348
2023-05-07T09:30:20.797Z,11960
2023-05-07T09:31:26.327Z,11984
2023-05-07T09:32:22.565Z,12092
2023-05-07T09:33:22.787Z,11376
2023-05-07T09:34:23.085Z,10544
2023-05-07T09:35:23.861Z,11912
2023-05-07T09:36:24.620Z,12172
2023-05-07T09:37:25.681Z,12004
2023-05-07T09:38:26.205Z,10088
2023-05-07T09:39:26.509Z,11052
2023-05-07T09:40:27.533Z,10732
2023-05-07T09:41:28.142Z,10236
2023-05-07T09:42:28.877Z,9820
2023-05-07T09:43:29.597Z,9128
2023-05-07T09:44:30.304Z,9372
2023-05-07T09:45:30.862Z,9132
2023-05-07T09:46:31.383Z,8236
2023-05-07T09:47:32.700Z,7656
2023-05-07T09:48:32.527Z,8384
2023-05-07T09:49:33.074Z,8004
2023-05-07T09:50:33.409Z,8264
2023-05-07T09:51:34.135Z,9808
2023-05-07T09:52:34.852Z,11156
2023-05-07T09:53:35.374Z,12520
2023-05-07T09:54:36.509Z,11192
2023-05-07T09:55:37.507Z,11280
2023-05-07T09:56:37.508Z,11508
2023-05-07T09:57:38.030Z,11196
2023-05-07T09:58:38.933Z,11048
2023-05-07T09:59:41.643Z,11704
2023-05-07T10:00:40.130Z,12148
2023-05-07T10:01:40.853Z,12032
2023-05-07T10:02:42.057Z,12064
2023-05-07T10:03:42.841Z,11924
2023-05-07T10:04:42.933Z,11392
2023-05-07T10:05:43.288Z,11644
2023-05-07T10:06:43.619Z,11280
2023-05-07T10:07:44.541Z,11164
2023-05-07T10:08:44.852Z,10960
2023-05-07T10:09:45.251Z,11460
2023-05-07T10:10:46.213Z,11208
2023-05-07T10:11:45.851Z,11320
2023-05-07T10:12:46.635Z,11020
2023-05-07T10:13:47.864Z,10944
2023-05-07T10:14:48.794Z,10848
2023-05-07T10:15:48.920Z,10972
2023-05-07T10:16:49.595Z,10976
2023-05-07T10:17:50.896Z,11008
2023-05-07T10:18:51.292Z,10812
2023-05-07T10:19:51.238Z,10592
2023-05-07T10:20:52.462Z,10556
2023-05-07T10:21:52.995Z,10568
2023-05-07T10:22:53.510Z,10372
2023-05-07T10:23:54.034Z,10436
2023-05-07T10:24:54.740Z,10516
2023-05-07T10:26:00.602Z,10344
2023-05-07T10:26:55.934Z,10776
2023-05-07T10:27:56.456Z,10572
2023-05-07T10:28:56.793Z,10428
2023-05-07T10:29:58.208Z,10384
2023-05-07T10:30:59.188Z,11056
2023-05-07T10:31:59.994Z,10796
2023-05-07T10:33:00.828Z,9948
2023-05-07T10:34:01.641Z,10692
2023-05-07T10:35:02.582Z,10796
2023-05-07T10:36:03.161Z,11012
2023-05-07T10:37:03.673Z,10732
2023-05-07T10:38:04.201Z,10664
2023-05-07T10:39:05.148Z,10660
2023-05-07T10:40:06.102Z,10912
2023-05-07T10:41:06.962Z,10704
2023-05-07T10:42:06.748Z,10216
2023-05-07T10:43:10.155Z,10496
2023-05-07T10:44:08.161Z,10608
2023-05-07T10:45:09.323Z,9640
2023-05-07T10:46:09.432Z,9912
2023-05-07T10:47:10.467Z,10712
2023-05-07T10:48:34.289Z,10508
2023-05-07T10:50:11.953Z,10696
2023-05-07T10:51:13.785Z,10064
2023-05-07T10:52:12.315Z,10272
2023-05-07T10:53:13.030Z,9880
2023-05-07T10:54:13.537Z,9712
2023-05-07T10:55:14.586Z,9688
2023-05-07T10:56:15.031Z,9608
2023-05-07T10:57:15.841Z,9980
2023-05-07T10:58:36.679Z,10196
2023-05-07T11:00:22.393Z,9836
2023-05-07T11:01:18.127Z,9632
2023-05-07T11:02:18.774Z,9332
2023-05-07T11:03:20.589Z,9520
2023-05-07T11:04:20.412Z,9860
2023-05-07T11:05:21.733Z,10196
2023-05-07T11:06:21.896Z,9912
2023-05-07T11:07:22.477Z,9808
2023-05-07T11:08:23.211Z,10020
2023-05-07T11:09:23.770Z,10088
2023-05-07T11:10:24.335Z,9980
2023-05-07T11:11:24.598Z,9852
2023-05-07T11:12:25.465Z,7988
2023-05-07T11:13:26.304Z,4708
2023-05-07T11:14:27.311Z,5772
2023-05-07T11:15:28.302Z,7916
2023-05-07T11:16:27.853Z,7776
2023-05-07T11:17:28.655Z,9040
2023-05-07T11:18:28.933Z,7488
2023-05-07T11:19:28.648Z,4592
2023-05-07T11:20:29.791Z,3612
2023-05-07T11:21:29.877Z,3288
2023-05-07T11:22:30.798Z,3056
2023-05-07T11:23:31.524Z,2956
2023-05-07T11:24:32.469Z,3064
2023-05-07T11:25:32.984Z,3292
2023-05-07T11:26:33.818Z,3392
2023-05-07T11:27:34.554Z,3252
2023-05-07T11:28:35.473Z,3092
2023-05-07T11:29:36.018Z,3012
2023-05-07T11:30:36.563Z,3016
2023-05-07T11:31:37.437Z,3608
2023-05-07T11:32:41.904Z,3376
2023-05-07T11:33:38.303Z,3256
2023-05-07T11:34:39.053Z,3184
2023-05-07T11:35:42.592Z,3792
2023-05-07T11:36:39.786Z,3920
2023-05-07T11:37:41.289Z,5080
2023-05-07T11:38:41.801Z,5384
2023-05-07T11:39:42.730Z,3660
2023-05-07T11:40:43.013Z,2844
2023-05-07T11:41:43.901Z,2588
2023-05-07T11:42:44.144Z,2404
2023-05-07T11:43:44.129Z,2304
2023-05-07T11:44:45.054Z,2264
2023-05-07T11:45:45.948Z,2268
2023-05-07T11:46:46.921Z,2280
2023-05-07T11:47:48.027Z,2216
2023-05-07T11:48:48.319Z,2188
2023-05-07T11:49:48.306Z,2164
2023-05-07T11:50:49.249Z,2136
2023-05-07T11:51:49.735Z,2120
2023-05-07T11:52:50.438Z,2112
2023-05-07T11:53:51.399Z,2128
2023-05-07T11:54:52.110Z,2200
2023-05-07T11:55:52.621Z,2300
2023-05-07T11:56:53.900Z,2384
2023-05-07T11:57:54.640Z,2432
2023-05-07T11:58:55.372Z,2576
2023-05-07T11:59:55.705Z,3160
2023-05-07T12:00:56.765Z,4296
2023-05-07T12:01:57.592Z,4040
2023-05-07T12:02:58.681Z,2964
2023-05-07T12:03:58.928Z,3216
2023-05-07T12:04:58.034Z,7304
2023-05-07T12:05:58.973Z,7256
2023-05-07T12:06:59.560Z,3444
2023-05-07T12:08:00.092Z,2968
2023-05-07T12:09:01.213Z,2820
2023-05-07T12:10:01.730Z,2828
2023-05-07T12:11:02.459Z,3220
2023-05-07T12:12:03.220Z,5488
2023-05-07T12:13:04.396Z,6792
2023-05-07T12:14:08.514Z,6884
2023-05-07T12:15:05.440Z,7012
2023-05-07T12:16:06.374Z,6968
2023-05-07T12:17:06.906Z,6812
2023-05-07T12:18:07.880Z,6444
2023-05-07T12:19:08.492Z,6592
2023-05-07T12:20:08.815Z,6444
2023-05-07T12:21:10.045Z,6288
2023-05-07T12:22:10.405Z,5852
2023-05-07T12:23:11.131Z,2560
2023-05-07T12:24:11.446Z,4392
2023-05-07T12:25:12.470Z,2380
2023-05-07T12:26:13.474Z,2028
2023-05-07T12:27:12.904Z,1936
2023-05-07T12:28:14.056Z,1840
2023-05-07T12:29:13.981Z,1784
2023-05-07T12:30:14.783Z,1784
2023-05-07T12:31:15.876Z,1776
2023-05-07T12:32:18.530Z,1720
2023-05-07T12:33:16.223Z,1656
2023-05-07T12:34:16.750Z,1584
2023-05-07T12:35:18.036Z,1496
2023-05-07T12:36:18.695Z,1428
2023-05-07T12:37:18.730Z,1340
2023-05-07T12:38:20.039Z,1256
2023-05-07T12:39:20.344Z,1188
2023-05-07T12:40:21.068Z,1124
2023-05-07T12:41:21.573Z,1056
2023-05-07T12:42:22.145Z,1016
2023-05-07T12:43:22.881Z,988
2023-05-07T12:44:23.679Z,964
2023-05-07T12:45:25.423Z,924
2023-05-07T12:46:25.774Z,880
2023-05-07T12:47:26.386Z,832
2023-05-07T12:48:27.165Z,788
2023-05-07T12:49:30.750Z,744
2023-05-07T12:50:28.320Z,704
2023-05-07T12:51:29.278Z,664
2023-05-07T12:52:30.086Z,624
2023-05-07T12:53:30.893Z,588
2023-05-07T12:54:32.006Z,560
2023-05-07T12:55:40.084Z,528
2023-05-07T12:56:33.645Z,508
2023-05-07T12:57:34.300Z,480
2023-05-07T12:58:35.286Z,452
2023-05-07T12:59:36.006Z,424
2023-05-07T13:00:36.954Z,404
2023-05-07T13:01:37.735Z,388
2023-05-07T13:02:38.421Z,372
2023-05-07T13:03:39.664Z,356
2023-05-07T13:04:39.803Z,344
2023-05-07T13:05:40.117Z,332
2023-05-07T13:06:40.629Z,324
2023-05-07T13:07:41.975Z,308
2023-05-07T13:08:41.731Z,296
2023-05-07T13:09:42.639Z,276
2023-05-07T13:10:43.152Z,264
2023-05-07T13:11:43.437Z,248
2023-05-07T13:12:43.883Z,236
2023-05-07T13:13:45.059Z,224
2023-05-07T13:14:45.785Z,212
2023-05-07T13:15:46.095Z,208
2023-05-07T13:16:47.134Z,204
2023-05-07T13:17:47.592Z,204
2023-05-07T13:18:48.046Z,200
2023-05-07T13:19:47.662Z,200
2023-05-07T13:20:48.196Z,192
2023-05-07T13:21:49.190Z,188
2023-05-07T13:22:49.971Z,184
2023-05-07T13:23:50.799Z,184
2023-05-07T13:24:51.112Z,180
2023-05-07T13:25:51.864Z,176
2023-05-07T13:26:56.913Z,168
2023-05-07T13:27:59.689Z,168
2023-05-07T13:28:54.314Z,164
2023-05-07T13:29:55.077Z,160
2023-05-07T13:30:55.969Z,156
2023-05-07T13:31:58.125Z,152
2023-05-07T13:32:56.626Z,152
2023-05-07T13:33:57.481Z,152
2023-05-07T13:34:58.441Z,152
2023-05-07T13:35:59.317Z,152
2023-05-07T13:37:00.274Z,160
2023-05-07T13:38:00.580Z,168
2023-05-07T13:39:01.100Z,184
2023-05-07T13:40:01.998Z,200
2023-05-07T13:41:02.786Z,216
2023-05-07T13:42:03.709Z,240
2023-05-07T13:43:04.533Z,256
2023-05-07T13:44:05.475Z,280
2023-05-07T13:45:06.457Z,300
2023-05-07T13:46:07.611Z,328
2023-05-07T13:47:07.729Z,352
2023-05-07T13:48:08.632Z,380
2023-05-07T13:49:09.353Z,420
2023-05-07T13:50:10.618Z,468
2023-05-07T13:51:10.636Z,520
2023-05-07T13:52:11.176Z,576
2023-05-07T13:53:12.147Z,644
2023-05-07T13:54:12.692Z,712
2023-05-07T13:55:13.467Z,800
2023-05-07T13:56:14.270Z,916
2023-05-07T13:57:14.773Z,1100
2023-05-07T13:58:18.507Z,1344
2023-05-07T13:59:16.392Z,1680